Entriken, Pennsylvania
Current Conditions -  °F | °C
As of 8:53 AM on Tuesday 27 Jan 2015 (Local Time) from KAOO Reporting Station
Overcast Overcast  
Wind Chill:   Ceiling: 4000
Heat Index: 21°   Visibility: 9mi
Dew Point: 16°   Wind: 13mph
Humidity: 81%   Direction: 340°NNW
Pressure: 29.82"   Gusts: NA
Location:  40.33°N, 78.2°W
Report Text: KAOO 271353Z AUTO 34011KT 9SM OVC040 M06/M09 A2982 RMK AO2 SNE53 SLP120 P0000 T10611089
Loading
Personal Weather Stations






























Interactive Weather Map New forecast layout! Learn more

10-Day Weather Forecast

Advertisements
Track Severe Weather on mobile